sensor_id;sensor_type;location;lat;lon;timestamp;pressure;altitude;pressure_sealevel;temperature;humidity
16793;BME280;8513;42.662;23.350;2023-04-22T00:02:14;94596.75;;;11.81;53.13
16793;BME280;8513;42.662;23.350;2023-04-22T00:04:41;94593.75;;;11.84;53.18
16793;BME280;8513;42.662;23.350;2023-04-22T00:07:07;94592.94;;;11.83;53.19
16793;BME280;8513;42.662;23.350;2023-04-22T00:09:33;94590.00;;;11.78;53.58
16793;BME280;8513;42.662;23.350;2023-04-22T00:11:59;94586.91;;;11.75;53.61
16793;BME280;8513;42.662;23.350;2023-04-22T00:14:25;94590.84;;;11.70;53.73
16793;BME280;8513;42.662;23.350;2023-04-22T00:16:51;94577.56;;;11.56;53.85
16793;BME280;8513;42.662;23.350;2023-04-22T00:19:16;94584.13;;;11.52;53.81
16793;BME280;8513;42.662;23.350;2023-04-22T00:21:42;94585.81;;;11.53;53.65
16793;BME280;8513;42.662;23.350;2023-04-22T00:24:07;94585.00;;;11.52;53.45
16793;BME280;8513;42.662;23.350;2023-04-22T00:26:33;94587.28;;;11.55;52.95
16793;BME280;8513;42.662;23.350;2023-04-22T00:28:58;94584.34;;;11.42;53.49
16793;BME280;8513;42.662;23.350;2023-04-22T00:31:24;94580.56;;;11.36;53.43
16793;BME280;8513;42.662;23.350;2023-04-22T00:33:49;94585.66;;;11.38;52.85
16793;BME280;8513;42.662;23.350;2023-04-22T00:36:15;94586.78;;;11.43;52.68
16793;BME280;8513;42.662;23.350;2023-04-22T00:38:45;94587.63;;;11.27;52.64
16793;BME280;8513;42.662;23.350;2023-04-22T00:41:13;94591.59;;;11.32;53.15
16793;BME280;8513;42.662;23.350;2023-04-22T00:43:38;94587.81;;;11.26;53.86
16793;BME280;8513;42.662;23.350;2023-04-22T00:46:04;94596.69;;;11.33;54.16
16793;BME280;8513;42.662;23.350;2023-04-22T00:48:30;94592.41;;;11.32;53.99
16793;BME280;8513;42.662;23.350;2023-04-22T00:50:56;94603.41;;;11.36;54.16
16793;BME280;8513;42.662;23.350;2023-04-22T00:53:21;94594.22;;;11.32;54.43
16793;BME280;8513;42.662;23.350;2023-04-22T00:55:47;94606.56;;;11.31;54.97
16793;BME280;8513;42.662;23.350;2023-04-22T00:58:13;94602.63;;;11.27;55.31
16793;BME280;8513;42.662;23.350;2023-04-22T01:00:39;94610.84;;;11.24;55.71
16793;BME280;8513;42.662;23.350;2023-04-22T01:03:06;94611.16;;;11.45;55.43
16793;BME280;8513;42.662;23.350;2023-04-22T01:05:31;94612.00;;;10.80;57.47
16793;BME280;8513;42.662;23.350;2023-04-22T01:07:57;94605.53;;;10.50;58.78
16793;BME280;8513;42.662;23.350;2023-04-22T01:10:23;94612.22;;;10.28;59.51
16793;BME280;8513;42.662;23.350;2023-04-22T01:12:49;94614.78;;;10.20;60.04
16793;BME280;8513;42.662;23.350;2023-04-22T01:15:14;94606.09;;;10.20;60.44
16793;BME280;8513;42.662;23.350;2023-04-22T01:17:40;94606.09;;;9.85;61.41
16793;BME280;8513;42.662;23.350;2023-04-22T01:20:06;94611.84;;;9.89;61.70
16793;BME280;8513;42.662;23.350;2023-04-22T01:22:35;94614.41;;;10.07;61.08
16793;BME280;8513;42.662;23.350;2023-04-22T01:25:04;94613.41;;;10.00;61.29
16793;BME280;8513;42.662;23.350;2023-04-22T01:27:30;94609.84;;;10.17;60.66
16793;BME280;8513;42.662;23.350;2023-04-22T01:29:55;94614.53;;;9.97;61.63
16793;BME280;8513;42.662;23.350;2023-04-22T01:32:21;94609.72;;;10.27;60.25
16793;BME280;8513;42.662;23.350;2023-04-22T01:34:46;94610.59;;;10.35;59.99
16793;BME280;8513;42.662;23.350;2023-04-22T01:37:12;94610.88;;;10.24;60.35
16793;BME280;8513;42.662;23.350;2023-04-22T01:39:38;94610.97;;;10.49;59.58
16793;BME280;8513;42.662;23.350;2023-04-22T01:42:03;94609.78;;;10.43;59.78
16793;BME280;8513;42.662;23.350;2023-04-22T01:44:29;94599.31;;;10.51;59.20
16793;BME280;8513;42.662;23.350;2023-04-22T01:46:54;94603.56;;;10.52;59.30
16793;BME280;8513;42.662;23.350;2023-04-22T01:49:20;94603.91;;;10.66;58.97
16793;BME280;8513;42.662;23.350;2023-04-22T01:51:45;94602.50;;;10.29;60.04
16793;BME280;8513;42.662;23.350;2023-04-22T01:54:11;94608.34;;;10.14;61.06
16793;BME280;8513;42.662;23.350;2023-04-22T01:56:37;94600.88;;;10.28;60.37
16793;BME280;8513;42.662;23.350;2023-04-22T01:59:07;94606.00;;;10.37;60.20
16793;BME280;8513;42.662;23.350;2023-04-22T02:01:33;94600.59;;;10.47;59.65
16793;BME280;8513;42.662;23.350;2023-04-22T02:03:58;94607.69;;;10.63;59.59
16793;BME280;8513;42.662;23.350;2023-04-22T02:06:24;94606.06;;;10.70;58.94
16793;BME280;8513;42.662;23.350;2023-04-22T02:08:50;94604.91;;;10.73;58.98
16793;BME280;8513;42.662;23.350;2023-04-22T02:11:15;94605.41;;;10.76;59.09
16793;BME280;8513;42.662;23.350;2023-04-22T02:13:40;94613.13;;;10.70;58.84
16793;BME280;8513;42.662;23.350;2023-04-22T02:16:06;94605.59;;;10.75;58.73
16793;BME280;8513;42.662;23.350;2023-04-22T02:18:32;94600.34;;;10.83;58.21
16793;BME280;8513;42.662;23.350;2023-04-22T02:20:58;94603.13;;;10.90;58.32
16793;BME280;8513;42.662;23.350;2023-04-22T02:23:24;94604.25;;;10.95;57.90
16793;BME280;8513;42.662;23.350;2023-04-22T02:25:50;94599.00;;;10.95;57.99
16793;BME280;8513;42.662;23.350;2023-04-22T02:28:16;94594.88;;;10.85;58.17
16793;BME280;8513;42.662;23.350;2023-04-22T02:30:41;94594.72;;;10.78;58.60
16793;BME280;8513;42.662;23.350;2023-04-22T02:33:07;94598.66;;;10.82;58.65
16793;BME280;8513;42.662;23.350;2023-04-22T02:35:32;94601.97;;;10.84;58.89
16793;BME280;8513;42.662;23.350;2023-04-22T02:37:58;94611.47;;;10.77;58.80
16793;BME280;8513;42.662;23.350;2023-04-22T02:40:23;94612.81;;;10.73;59.13
16793;BME280;8513;42.662;23.350;2023-04-22T02:42:49;94609.69;;;10.77;59.30
16793;BME280;8513;42.662;23.350;2023-04-22T02:45:15;94611.66;;;10.75;59.29
16793;BME280;8513;42.662;23.350;2023-04-22T02:47:40;94611.34;;;10.78;59.01
16793;BME280;8513;42.662;23.350;2023-04-22T02:50:06;94620.69;;;10.81;59.20
16793;BME280;8513;42.662;23.350;2023-04-22T02:52:32;94624.00;;;10.75;58.80
16793;BME280;8513;42.662;23.350;2023-04-22T02:54:58;94626.28;;;10.70;58.69
16793;BME280;8513;42.662;23.350;2023-04-22T02:57:24;94625.75;;;10.66;58.32
16793;BME280;8513;42.662;23.350;2023-04-22T02:59:49;94623.97;;;10.67;58.16
16793;BME280;8513;42.662;23.350;2023-04-22T03:02:15;94621.66;;;10.64;58.25
16793;BME280;8513;42.662;23.350;2023-04-22T03:04:40;94626.28;;;10.62;58.39
16793;BME280;8513;42.662;23.350;2023-04-22T03:07:06;94620.66;;;10.56;58.29
16793;BME280;8513;42.662;23.350;2023-04-22T03:09:31;94621.97;;;10.52;58.36
16793;BME280;8513;42.662;23.350;2023-04-22T03:11:57;94622.63;;;10.54;58.16
16793;BME280;8513;42.662;23.350;2023-04-22T03:14:22;94629.22;;;10.58;58.18
16793;BME280;8513;42.662;23.350;2023-04-22T03:16:48;94635.13;;;10.60;58.18
16793;BME280;8513;42.662;23.350;2023-04-22T03:19:13;94634.63;;;10.57;58.48
16793;BME280;8513;42.662;23.350;2023-04-22T03:21:38;94626.56;;;10.50;58.80
16793;BME280;8513;42.662;23.350;2023-04-22T03:24:04;94626.88;;;10.47;58.95
16793;BME280;8513;42.662;23.350;2023-04-22T03:26:30;94625.91;;;10.48;58.72
16793;BME280;8513;42.662;23.350;2023-04-22T03:28:55;94631.66;;;10.52;58.77
16793;BME280;8513;42.662;23.350;2023-04-22T03:31:20;94631.81;;;10.50;58.69
16793;BME280;8513;42.662;23.350;2023-04-22T03:33:46;94628.66;;;10.38;59.03
16793;BME280;8513;42.662;23.350;2023-04-22T03:36:11;94638.38;;;10.38;59.01
16793;BME280;8513;42.662;23.350;2023-04-22T03:38:37;94645.44;;;10.37;58.86
16793;BME280;8513;42.662;23.350;2023-04-22T03:41:02;94650.19;;;10.42;58.60
16793;BME280;8513;42.662;23.350;2023-04-22T03:43:28;94642.97;;;10.44;58.43
16793;BME280;8513;42.662;23.350;2023-04-22T03:45:53;94638.03;;;10.41;58.13
16793;BME280;8513;42.662;23.350;2023-04-22T03:48:18;94651.50;;;10.38;57.60
16793;BME280;8513;42.662;23.350;2023-04-22T03:50:44;94648.69;;;10.31;58.07
16793;BME280;8513;42.662;23.350;2023-04-22T03:53:10;94650.16;;;10.34;57.81
16793;BME280;8513;42.662;23.350;2023-04-22T03:55:35;94650.19;;;10.42;57.28
16793;BME280;8513;42.662;23.350;2023-04-22T03:58:00;94658.06;;;10.42;57.39
16793;BME280;8513;42.662;23.350;2023-04-22T04:00:26;94651.19;;;10.41;56.96
16793;BME280;8513;42.662;23.350;2023-04-22T04:02:51;94658.03;;;10.34;56.82
16793;BME280;8513;42.662;23.350;2023-04-22T04:05:17;94648.19;;;10.28;56.78
16793;BME280;8513;42.662;23.350;2023-04-22T04:07:42;94649.53;;;10.32;56.74
16793;BME280;8513;42.662;23.350;2023-04-22T04:10:09;94654.13;;;10.38;56.62
16793;BME280;8513;42.662;23.350;2023-04-22T04:12:34;94665.78;;;10.35;56.16
16793;BME280;8513;42.662;23.350;2023-04-22T04:15:00;94664.66;;;10.38;56.29
16793;BME280;8513;42.662;23.350;2023-04-22T04:17:25;94656.75;;;10.38;56.28
16793;BME280;8513;42.662;23.350;2023-04-22T04:19:53;94660.22;;;10.47;56.14
16793;BME280;8513;42.662;23.350;2023-04-22T04:22:19;94659.44;;;10.54;55.93
16793;BME280;8513;42.662;23.350;2023-04-22T04:24:45;94663.22;;;10.52;56.04
16793;BME280;8513;42.662;23.350;2023-04-22T04:27:12;94665.19;;;10.58;55.57
16793;BME280;8513;42.662;23.350;2023-04-22T04:29:38;94672.09;;;10.59;55.56
16793;BME280;8513;42.662;23.350;2023-04-22T04:32:04;94661.09;;;10.64;55.20
16793;BME280;8513;42.662;23.350;2023-04-22T04:34:29;94675.91;;;10.73;54.99
16793;BME280;8513;42.662;23.350;2023-04-22T04:37:02;94679.22;;;10.75;55.16
16793;BME280;8513;42.662;23.350;2023-04-22T04:39:27;94683.16;;;10.79;55.31
16793;BME280;8513;42.662;23.350;2023-04-22T04:41:53;94679.84;;;10.77;55.17
16793;BME280;8513;42.662;23.350;2023-04-22T04:44:23;94691.34;;;10.59;55.65
16793;BME280;8513;42.662;23.350;2023-04-22T04:46:50;94696.41;;;10.61;55.70
16793;BME280;8513;42.662;23.350;2023-04-22T04:49:16;94694.31;;;10.65;55.71
16793;BME280;8513;42.662;23.350;2023-04-22T04:51:41;94699.72;;;10.63;55.88
16793;BME280;8513;42.662;23.350;2023-04-22T04:54:07;94701.41;;;10.80;55.39
16793;BME280;8513;42.662;23.350;2023-04-22T04:56:32;94697.47;;;10.85;55.93
16793;BME280;8513;42.662;23.350;2023-04-22T04:58:58;94699.28;;;10.92;55.79
16793;BME280;8513;42.662;23.350;2023-04-22T05:01:23;94706.16;;;10.77;56.00
16793;BME280;8513;42.662;23.350;2023-04-22T05:03:49;94704.34;;;10.69;56.27
16793;BME280;8513;42.662;23.350;2023-04-22T05:06:15;94703.25;;;10.88;56.05
16793;BME280;8513;42.662;23.350;2023-04-22T05:08:40;94700.78;;;11.03;56.55
16793;BME280;8513;42.662;23.350;2023-04-22T05:11:05;94710.84;;;11.16;56.34
16793;BME280;8513;42.662;23.350;2023-04-22T05:13:31;94706.88;;;11.20;55.92
16793;BME280;8513;42.662;23.350;2023-04-22T05:15:56;94709.22;;;11.23;55.62
16793;BME280;8513;42.662;23.350;2023-04-22T05:18:22;94701.81;;;11.26;55.43
16793;BME280;8513;42.662;23.350;2023-04-22T05:20:47;94707.22;;;11.33;55.44
16793;BME280;8513;42.662;23.350;2023-04-22T05:23:13;94715.97;;;11.34;55.53
16793;BME280;8513;42.662;23.350;2023-04-22T05:25:38;94712.47;;;11.17;56.32
16793;BME280;8513;42.662;23.350;2023-04-22T05:28:04;94705.09;;;11.12;56.80
16793;BME280;8513;42.662;23.350;2023-04-22T05:30:29;94718.09;;;11.30;56.46
16793;BME280;8513;42.662;23.350;2023-04-22T05:32:55;94714.50;;;11.39;55.99
16793;BME280;8513;42.662;23.350;2023-04-22T05:35:20;94700.34;;;11.40;56.18
16793;BME280;8513;42.662;23.350;2023-04-22T05:37:46;94703.16;;;11.47;56.23
16793;BME280;8513;42.662;23.350;2023-04-22T05:40:11;94711.03;;;11.55;56.26
16793;BME280;8513;42.662;23.350;2023-04-22T05:42:37;94707.88;;;11.60;55.71
16793;BME280;8513;42.662;23.350;2023-04-22T05:45:02;94713.66;;;11.72;55.32
16793;BME280;8513;42.662;23.350;2023-04-22T05:47:29;94704.97;;;11.55;55.91
16793;BME280;8513;42.662;23.350;2023-04-22T05:49:54;94706.56;;;11.72;54.81
16793;BME280;8513;42.662;23.350;2023-04-22T05:52:19;94714.16;;;11.67;55.39
16793;BME280;8513;42.662;23.350;2023-04-22T05:54:45;94700.97;;;11.75;54.96
16793;BME280;8513;42.662;23.350;2023-04-22T05:57:10;94709.53;;;11.77;54.95
16793;BME280;8513;42.662;23.350;2023-04-22T05:59:36;94713.16;;;11.84;54.77
16793;BME280;8513;42.662;23.350;2023-04-22T06:02:02;94705.56;;;11.81;54.98
16793;BME280;8513;42.662;23.350;2023-04-22T06:04:27;94699.69;;;11.87;54.74
16793;BME280;8513;42.662;23.350;2023-04-22T06:06:53;94707.38;;;11.97;54.75
16793;BME280;8513;42.662;23.350;2023-04-22T06:09:19;94713.66;;;11.80;55.21
16793;BME280;8513;42.662;23.350;2023-04-22T06:11:45;94708.03;;;11.83;55.22
16793;BME280;8513;42.662;23.350;2023-04-22T06:14:10;94706.88;;;12.02;54.78
16793;BME280;8513;42.662;23.350;2023-04-22T06:16:37;94708.97;;;12.23;53.73
16793;BME280;8513;42.662;23.350;2023-04-22T06:19:02;94710.53;;;11.84;55.10
16793;BME280;8513;42.662;23.350;2023-04-22T06:21:28;94704.75;;;11.89;55.26
16793;BME280;8513;42.662;23.350;2023-04-22T06:23:53;94707.41;;;11.89;55.04
16793;BME280;8513;42.662;23.350;2023-04-22T06:26:19;94700.63;;;11.95;55.05
16793;BME280;8513;42.662;23.350;2023-04-22T06:28:44;94712.16;;;12.02;54.97
16793;BME280;8513;42.662;23.350;2023-04-22T06:31:10;94712.31;;;12.08;55.00
16793;BME280;8513;42.662;23.350;2023-04-22T06:33:35;94712.47;;;12.15;54.74
16793;BME280;8513;42.662;23.350;2023-04-22T06:36:01;94710.94;;;12.29;54.49
16793;BME280;8513;42.662;23.350;2023-04-22T06:38:26;94715.72;;;12.25;53.96
16793;BME280;8513;42.662;23.350;2023-04-22T06:40:52;94718.63;;;12.47;54.15
16793;BME280;8513;42.662;23.350;2023-04-22T06:43:17;94716.09;;;12.53;54.32
16793;BME280;8513;42.662;23.350;2023-04-22T06:45:42;94716.25;;;12.60;54.02
16793;BME280;8513;42.662;23.350;2023-04-22T06:48:08;94718.72;;;12.70;53.82
16793;BME280;8513;42.662;23.350;2023-04-22T06:50:33;94717.81;;;12.77;53.75
16793;BME280;8513;42.662;23.350;2023-04-22T06:52:59;94711.34;;;12.88;53.33
16793;BME280;8513;42.662;23.350;2023-04-22T06:55:25;94718.28;;;12.89;53.25
16793;BME280;8513;42.662;23.350;2023-04-22T06:57:50;94725.72;;;12.86;53.10
16793;BME280;8513;42.662;23.350;2023-04-22T07:00:16;94719.91;;;12.90;52.66
16793;BME280;8513;42.662;23.350;2023-04-22T07:02:41;94711.63;;;12.93;52.60
16793;BME280;8513;42.662;23.350;2023-04-22T07:05:07;94714.56;;;12.98;52.61
16793;BME280;8513;42.662;23.350;2023-04-22T07:07:32;94713.91;;;13.05;52.63
16793;BME280;8513;42.662;23.350;2023-04-22T07:09:58;94718.47;;;13.11;52.77
16793;BME280;8513;42.662;23.350;2023-04-22T07:12:23;94720.91;;;13.20;52.82
16793;BME280;8513;42.662;23.350;2023-04-22T07:14:50;94719.72;;;13.31;52.24
16793;BME280;8513;42.662;23.350;2023-04-22T07:17:15;94709.25;;;13.38;51.80
16793;BME280;8513;42.662;23.350;2023-04-22T07:19:43;94719.13;;;13.13;52.40
16793;BME280;8513;42.662;23.350;2023-04-22T07:22:09;94715.28;;;13.23;52.05
16793;BME280;8513;42.662;23.350;2023-04-22T07:24:34;94714.47;;;13.46;51.52
16793;BME280;8513;42.662;23.350;2023-04-22T07:27:00;94724.25;;;13.60;51.56
16793;BME280;8513;42.662;23.350;2023-04-22T07:29:26;94715.81;;;13.65;51.12
16793;BME280;8513;42.662;23.350;2023-04-22T07:31:52;94718.00;;;13.76;50.32
16793;BME280;8513;42.662;23.350;2023-04-22T07:34:17;94714.75;;;13.74;50.94
16793;BME280;8513;42.662;23.350;2023-04-22T07:36:43;94716.47;;;13.82;50.79
16793;BME280;8513;42.662;23.350;2023-04-22T07:39:08;94724.97;;;13.92;50.89
16793;BME280;8513;42.662;23.350;2023-04-22T07:41:34;94721.34;;;13.93;49.83
16793;BME280;8513;42.662;23.350;2023-04-22T07:44:00;94724.09;;;14.00;49.63
16793;BME280;8513;42.662;23.350;2023-04-22T07:46:27;94721.84;;;14.11;49.50
16793;BME280;8513;42.662;23.350;2023-04-22T07:48:53;94719.47;;;14.17;48.78
16793;BME280;8513;42.662;23.350;2023-04-22T07:51:18;94709.50;;;14.19;48.76
16793;BME280;8513;42.662;23.350;2023-04-22T07:53:44;94714.34;;;14.30;48.31
16793;BME280;8513;42.662;23.350;2023-04-22T07:56:09;94711.25;;;14.26;48.68
16793;BME280;8513;42.662;23.350;2023-04-22T07:58:35;94705.53;;;14.23;48.32
16793;BME280;8513;42.662;23.350;2023-04-22T08:01:00;94714.72;;;14.27;48.55
16793;BME280;8513;42.662;23.350;2023-04-22T08:03:26;94703.16;;;14.28;48.79
16793;BME280;8513;42.662;23.350;2023-04-22T08:05:51;94700.31;;;14.29;49.00
16793;BME280;8513;42.662;23.350;2023-04-22T08:08:17;94715.00;;;14.47;48.57
16793;BME280;8513;42.662;23.350;2023-04-22T08:10:42;94708.63;;;14.41;48.42
16793;BME280;8513;42.662;23.350;2023-04-22T08:13:07;94701.06;;;14.53;48.26
16793;BME280;8513;42.662;23.350;2023-04-22T08:15:33;94703.63;;;14.61;47.53
16793;BME280;8513;42.662;23.350;2023-04-22T08:17:58;94698.53;;;14.60;47.04
16793;BME280;8513;42.662;23.350;2023-04-22T08:20:24;94705.00;;;14.57;46.68
16793;BME280;8513;42.662;23.350;2023-04-22T08:22:50;94702.63;;;14.62;46.35
16793;BME280;8513;42.662;23.350;2023-04-22T08:25:21;94698.69;;;14.73;46.59
16793;BME280;8513;42.662;23.350;2023-04-22T08:27:48;94700.75;;;14.77;46.36
16793;BME280;8513;42.662;23.350;2023-04-22T08:30:14;94696.38;;;14.85;45.47
16793;BME280;8513;42.662;23.350;2023-04-22T08:32:39;94684.22;;;14.90;43.97
16793;BME280;8513;42.662;23.350;2023-04-22T08:35:05;94685.63;;;14.86;44.19
16793;BME280;8513;42.662;23.350;2023-04-22T08:37:30;94691.22;;;14.98;44.07
16793;BME280;8513;42.662;23.350;2023-04-22T08:39:56;94685.66;;;15.08;42.99
16793;BME280;8513;42.662;23.350;2023-04-22T08:42:22;94679.72;;;15.06;42.70
16793;BME280;8513;42.662;23.350;2023-04-22T08:44:47;94673.00;;;14.88;42.96
16793;BME280;8513;42.662;23.350;2023-04-22T08:47:13;94680.13;;;14.88;43.41
16793;BME280;8513;42.662;23.350;2023-04-22T08:49:41;94666.34;;;14.92;42.73
16793;BME280;8513;42.662;23.350;2023-04-22T08:52:06;94669.25;;;14.97;42.68
16793;BME280;8513;42.662;23.350;2023-04-22T08:54:34;94665.94;;;14.95;42.46
16793;BME280;8513;42.662;23.350;2023-04-22T08:57:01;94665.50;;;14.92;42.38
16793;BME280;8513;42.662;23.350;2023-04-22T08:59:27;94662.41;;;14.88;42.74
16793;BME280;8513;42.662;23.350;2023-04-22T09:01:54;94658.91;;;15.03;43.01
16793;BME280;8513;42.662;23.350;2023-04-22T09:04:19;94661.69;;;15.16;42.11
16793;BME280;8513;42.662;23.350;2023-04-22T09:06:45;94652.44;;;15.27;41.57
16793;BME280;8513;42.662;23.350;2023-04-22T09:09:11;94651.59;;;15.69;40.04
16793;BME280;8513;42.662;23.350;2023-04-22T09:11:36;94655.81;;;15.42;40.33
16793;BME280;8513;42.662;23.350;2023-04-22T09:14:03;94648.25;;;15.39;40.02
16793;BME280;8513;42.662;23.350;2023-04-22T09:16:29;94649.69;;;15.41;39.36
16793;BME280;8513;42.662;23.350;2023-04-22T09:18:55;94647.69;;;15.43;40.60
16793;BME280;8513;42.662;23.350;2023-04-22T09:21:24;94650.47;;;15.63;40.16
16793;BME280;8513;42.662;23.350;2023-04-22T09:23:51;94645.69;;;15.74;39.43
16793;BME280;8513;42.662;23.350;2023-04-22T09:26:23;94644.72;;;15.75;39.15
16793;BME280;8513;42.662;23.350;2023-04-22T09:28:54;94649.88;;;15.83;39.10
16793;BME280;8513;42.662;23.350;2023-04-22T09:31:20;94637.97;;;15.72;37.38
16793;BME280;8513;42.662;23.350;2023-04-22T09:33:48;94638.22;;;15.77;37.52
16793;BME280;8513;42.662;23.350;2023-04-22T09:36:14;94630.94;;;15.93;37.04
16793;BME280;8513;42.662;23.350;2023-04-22T09:38:39;94623.75;;;16.15;37.54
16793;BME280;8513;42.662;23.350;2023-04-22T09:41:08;94624.31;;;16.45;37.30
16793;BME280;8513;42.662;23.350;2023-04-22T09:43:36;94623.03;;;16.34;36.99
16793;BME280;8513;42.662;23.350;2023-04-22T09:46:02;94631.28;;;16.52;36.33
16793;BME280;8513;42.662;23.350;2023-04-22T09:48:27;94629.22;;;16.96;34.83
16793;BME280;8513;42.662;23.350;2023-04-22T09:50:53;94627.28;;;16.76;33.89
16793;BME280;8513;42.662;23.350;2023-04-22T09:53:20;94629.03;;;16.97;34.70
16793;BME280;8513;42.662;23.350;2023-04-22T09:55:51;94624.41;;;17.59;33.19
16793;BME280;8513;42.662;23.350;2023-04-22T09:58:19;94617.63;;;17.37;32.70
16793;BME280;8513;42.662;23.350;2023-04-22T10:00:49;94626.03;;;17.60;32.50
16793;BME280;8513;42.662;23.350;2023-04-22T10:03:15;94622.16;;;17.43;35.15
16793;BME280;8513;42.662;23.350;2023-04-22T10:05:41;94622.97;;;17.44;36.26
16793;BME280;8513;42.662;23.350;2023-04-22T10:08:09;94625.41;;;17.38;35.81
16793;BME280;8513;42.662;23.350;2023-04-22T10:10:35;94631.50;;;17.26;35.22
16793;BME280;8513;42.662;23.350;2023-04-22T10:13:01;94624.16;;;17.28;34.62
16793;BME280;8513;42.662;23.350;2023-04-22T10:15:39;94632.09;;;17.01;34.25
16793;BME280;8513;42.662;23.350;2023-04-22T10:18:12;94622.91;;;17.04;34.35
16793;BME280;8513;42.662;23.350;2023-04-22T10:20:40;94626.00;;;17.27;33.81
16793;BME280;8513;42.662;23.350;2023-04-22T10:23:12;94615.78;;;17.51;33.30
16793;BME280;8513;42.662;23.350;2023-04-22T10:25:39;94617.22;;;17.53;33.31
16793;BME280;8513;42.662;23.350;2023-04-22T10:28:07;94617.25;;;17.80;33.13
16793;BME280;8513;42.662;23.350;2023-04-22T10:30:36;94621.31;;;18.02;31.81
16793;BME280;8513;42.662;23.350;2023-04-22T10:33:34;94616.75;;;18.23;31.41
16793;BME280;8513;42.662;23.350;2023-04-22T10:38:38;94607.09;;;18.42;30.58
16793;BME280;8513;42.662;23.350;2023-04-22T10:41:04;94619.56;;;18.48;31.93
16793;BME280;8513;42.662;23.350;2023-04-22T10:43:45;94613.34;;;18.67;32.11
16793;BME280;8513;42.662;23.350;2023-04-22T10:49:17;94607.31;;;18.92;30.80
16793;BME280;8513;42.662;23.350;2023-04-22T10:57:14;94592.88;;;19.38;28.94
16793;BME280;8513;42.662;23.350;2023-04-22T10:59:53;94596.28;;;19.20;28.11
16793;BME280;8513;42.662;23.350;2023-04-22T11:02:20;94596.81;;;19.04;28.80
16793;BME280;8513;42.662;23.350;2023-04-22T11:04:47;94595.69;;;19.18;28.80
16793;BME280;8513;42.662;23.350;2023-04-22T11:10:06;94598.78;;;19.15;28.11
16793;BME280;8513;42.662;23.350;2023-04-22T11:15:00;94597.69;;;18.91;27.54
16793;BME280;8513;42.662;23.350;2023-04-22T11:17:26;94595.56;;;19.00;27.83
16793;BME280;8513;42.662;23.350;2023-04-22T11:19:51;94603.91;;;19.16;28.18
16793;BME280;8513;42.662;23.350;2023-04-22T11:22:22;94591.31;;;19.24;29.45
16793;BME280;8513;42.662;23.350;2023-04-22T11:24:58;94604.34;;;19.64;30.04
16793;BME280;8513;42.662;23.350;2023-04-22T11:27:25;94610.94;;;19.68;30.29
16793;BME280;8513;42.662;23.350;2023-04-22T11:30:21;94622.06;;;19.83;30.90
16793;BME280;8513;42.662;23.350;2023-04-22T11:32:49;94621.78;;;19.73;30.72
16793;BME280;8513;42.662;23.350;2023-04-22T11:37:49;94635.22;;;19.85;31.19
16793;BME280;8513;42.662;23.350;2023-04-22T11:40:20;94629.91;;;20.03;31.16
16793;BME280;8513;42.662;23.350;2023-04-22T11:42:52;94630.06;;;20.08;31.16
16793;BME280;8513;42.662;23.350;2023-04-22T11:45:19;94634.88;;;20.18;30.97
16793;BME280;8513;42.662;23.350;2023-04-22T11:47:44;94628.75;;;20.17;30.82
16793;BME280;8513;42.662;23.350;2023-04-22T11:50:12;94641.47;;;20.40;30.98
16793;BME280;8513;42.662;23.350;2023-04-22T11:53:11;94639.75;;;20.46;29.82
16793;BME280;8513;42.662;23.350;2023-04-22T11:55:39;94640.19;;;20.43;29.82
16793;BME280;8513;42.662;23.350;2023-04-22T11:58:07;94633.81;;;20.44;29.85
16793;BME280;8513;42.662;23.350;2023-04-22T12:00:36;94642.31;;;20.59;29.61
16793;BME280;8513;42.662;23.350;2023-04-22T12:05:40;94647.94;;;21.18;29.34
16793;BME280;8513;42.662;23.350;2023-04-22T12:08:08;94637.78;;;21.08;30.63
16793;BME280;8513;42.662;23.350;2023-04-22T12:10:39;94651.34;;;20.77;30.47
16793;BME280;8513;42.662;23.350;2023-04-22T12:13:05;94654.91;;;20.70;30.97
16793;BME280;8513;42.662;23.350;2023-04-22T12:15:40;94660.44;;;21.06;30.00
16793;BME280;8513;42.662;23.350;2023-04-22T12:18:06;94657.84;;;20.99;30.34
16793;BME280;8513;42.662;23.350;2023-04-22T12:20:36;94653.88;;;21.20;29.34
16793;BME280;8513;42.662;23.350;2023-04-22T12:23:03;94650.75;;;20.75;28.76
16793;BME280;8513;42.662;23.350;2023-04-22T12:25:28;94659.72;;;20.99;29.22
16793;BME280;8513;42.662;23.350;2023-04-22T12:27:55;94656.63;;;20.83;28.66
16793;BME280;8513;42.662;23.350;2023-04-22T12:30:23;94659.50;;;20.82;29.58
16793;BME280;8513;42.662;23.350;2023-04-22T12:32:51;94657.94;;;20.92;29.56
16793;BME280;8513;42.662;23.350;2023-04-22T12:35:16;94652.31;;;21.31;29.31
16793;BME280;8513;42.662;23.350;2023-04-22T12:37:42;94653.16;;;21.13;29.76
16793;BME280;8513;42.662;23.350;2023-04-22T12:40:08;94657.03;;;21.47;28.68
16793;BME280;8513;42.662;23.350;2023-04-22T12:42:34;94662.31;;;21.66;28.02
16793;BME280;8513;42.662;23.350;2023-04-22T12:45:00;94651.31;;;20.95;29.13
16793;BME280;8513;42.662;23.350;2023-04-22T12:47:25;94659.94;;;20.97;29.95
16793;BME280;8513;42.662;23.350;2023-04-22T12:49:51;94659.16;;;21.08;30.01
16793;BME280;8513;42.662;23.350;2023-04-22T12:52:16;94642.91;;;21.10;28.92
16793;BME280;8513;42.662;23.350;2023-04-22T12:54:42;94643.63;;;20.68;30.32
16793;BME280;8513;42.662;23.350;2023-04-22T12:57:07;94648.06;;;20.93;30.11
16793;BME280;8513;42.662;23.350;2023-04-22T12:59:33;94644.47;;;21.48;30.06
16793;BME280;8513;42.662;23.350;2023-04-22T13:01:58;94639.53;;;21.75;29.06
16793;BME280;8513;42.662;23.350;2023-04-22T13:04:24;94635.84;;;22.11;28.39
16793;BME280;8513;42.662;23.350;2023-04-22T13:06:50;94636.78;;;22.29;28.16
16793;BME280;8513;42.662;23.350;2023-04-22T13:09:24;94647.50;;;22.17;28.01
16793;BME280;8513;42.662;23.350;2023-04-22T13:11:50;94640.25;;;22.17;27.86
16793;BME280;8513;42.662;23.350;2023-04-22T13:14:16;94637.59;;;22.06;27.57
16793;BME280;8513;42.662;23.350;2023-04-22T13:16:42;94639.25;;;21.65;28.26
16793;BME280;8513;42.662;23.350;2023-04-22T13:19:08;94629.22;;;21.48;28.14